Time;durP1;ratioP1;P1;durP2;ratioP2;P2;SDS_P1;SDS_P2;PMS_P1;PMS_P2;Temp;Humidity;BMP_temperature;BMP_pressure;BME280_temperature;BME280_humidity;BME280_pressure;Samples;Min_cycle;Max_cycle;Signal;HPM_P1;HPM_P2
2022/09/27 00:00:32;;;;;;;1.63;0.70;;;12.50;87.10;;;;;;4956766;28;20509;-88
2022/09/27 00:03:00;;;;;;;0.80;0.80;;;12.60;86.90;;;;;;4973485;28;20961;-88
2022/09/27 00:05:27;;;;;;;0.80;0.80;;;12.50;86.90;;;;;;4952829;28;20457;-88
2022/09/27 00:07:55;;;;;;;0.70;0.70;;;12.50;87.20;;;;;;4955027;28;20541;-88
2022/09/27 00:10:22;;;;;;;1.17;0.90;;;12.50;86.90;;;;;;4971397;28;20482;-88
2022/09/27 00:12:49;;;;;;;1.00;0.80;;;12.60;86.90;;;;;;4952335;28;20819;-88
2022/09/27 00:15:15;;;;;;;1.10;0.90;;;12.60;86.70;;;;;;4945285;28;20514;-88
2022/09/27 00:17:42;;;;;;;0.80;0.80;;;12.60;86.80;;;;;;4966925;28;20491;-88
2022/09/27 00:20:09;;;;;;;1.10;0.80;;;12.60;86.50;;;;;;4974300;28;20939;-88
2022/09/27 00:22:36;;;;;;;2.20;0.80;;;12.60;86.70;;;;;;4972293;28;20526;-88
2022/09/27 00:25:06;;;;;;;2.00;0.80;;;12.60;86.60;;;;;;4972975;28;20462;-88
2022/09/27 00:27:33;;;;;;;0.80;0.77;;;12.60;86.60;;;;;;4954519;28;20470;-88
2022/09/27 00:29:59;;;;;;;3.77;0.90;;;12.70;86.60;;;;;;4953187;28;20607;-88
2022/09/27 00:32:26;;;;;;;0.90;0.77;;;12.60;86.60;;;;;;4954377;28;21158;-88
2022/09/27 00:34:53;;;;;;;0.80;0.80;;;12.70;86.70;;;;;;4953759;28;20467;-88
2022/09/27 00:37:20;;;;;;;1.37;0.70;;;12.60;86.90;;;;;;4953484;28;20744;-88
2022/09/27 00:39:47;;;;;;;0.93;0.70;;;12.60;87.10;;;;;;4970755;28;20469;-88
2022/09/27 00:42:14;;;;;;;1.27;0.87;;;12.50;87.20;;;;;;4953881;28;20470;-88
2022/09/27 00:44:40;;;;;;;3.07;1.40;;;12.60;87.30;;;;;;4949828;28;20741;-88
2022/09/27 00:47:26;;;;;;;4.60;1.77;;;12.60;87.10;;;;;;4952015;28;20524;-88
2022/09/27 00:50:03;;;;;;;0.93;0.90;;;12.60;87.00;;;;;;4954504;28;20494;-88
2022/09/27 00:52:54;;;;;;;1.03;0.90;;;12.60;86.80;;;;;;4953475;28;20873;-88
2022/09/27 00:55:45;;;;;;;1.40;1.30;;;12.60;86.70;;;;;;4952852;28;20883;-88
2022/09/27 00:58:17;;;;;;;0.77;0.77;;;12.60;86.70;;;;;;4971659;28;20886;-88
2022/09/27 01:00:49;;;;;;;1.27;0.93;;;12.60;86.70;;;;;;4969868;28;20516;-88
2022/09/27 01:03:25;;;;;;;2.93;1.03;;;12.70;86.50;;;;;;4954521;28;20458;-88
2022/09/27 01:05:53;;;;;;;1.67;1.00;;;12.60;86.60;;;;;;4953109;28;20490;-88
2022/09/27 01:08:20;;;;;;;2.57;0.83;;;12.70;86.50;;;;;;4971271;28;20944;-88
2022/09/27 01:11:20;;;;;;;1.00;1.00;;;12.60;86.40;;;;;;4970678;28;20517;-88
2022/09/27 01:13:55;;;;;;;1.80;1.00;;;12.70;86.40;;;;;;4943808;28;20999;-88
2022/09/27 01:16:46;;;;;;;2.63;1.00;;;12.60;86.40;;;;;;4949896;28;20470;-88
2022/09/27 01:19:45;;;;;;;3.63;0.80;;;12.60;86.40;;;;;;4947795;28;20478;-88
2022/09/27 01:22:28;;;;;;;0.63;0.63;;;12.60;86.40;;;;;;4953833;28;20454;-88
2022/09/27 01:25:32;;;;;;;0.90;0.60;;;12.60;86.40;;;;;;4955967;28;20545;-88
2022/09/27 01:28:19;;;;;;;1.00;0.97;;;12.60;86.50;;;;;;4970777;28;20466;-88
2022/09/27 01:31:03;;;;;;;2.90;1.03;;;12.60;86.30;;;;;;4968490;28;20462;-88
2022/09/27 01:33:44;;;;;;;2.40;1.00;;;12.60;86.50;;;;;;4974200;28;20963;-88
2022/09/27 01:36:49;;;;;;;2.17;1.30;;;12.60;86.40;;;;;;4949076;28;20470;-88
2022/09/27 01:39:47;;;;;;;2.13;1.40;;;12.60;86.50;;;;;;4970229;28;20932;-88
2022/09/27 01:42:26;;;;;;;1.60;1.13;;;12.60;86.30;;;;;;4952939;28;20470;-88
2022/09/27 01:45:03;;;;;;;1.17;1.07;;;12.60;86.30;;;;;;4951847;28;20645;-88
2022/09/27 01:47:43;;;;;;;2.60;1.23;;;12.60;86.30;;;;;;4971454;28;20566;-88
2022/09/27 01:50:22;;;;;;;1.40;1.30;;;12.60;86.30;;;;;;4966970;28;20490;-88
2022/09/27 01:53:04;;;;;;;6.27;1.57;;;12.60;86.20;;;;;;4952206;28;20459;-88
2022/09/27 01:55:35;;;;;;;2.93;1.50;;;12.60;86.00;;;;;;4947228;28;21035;-88
2022/09/27 01:58:10;;;;;;;2.43;1.63;;;12.60;86.30;;;;;;4952439;28;20474;-88
2022/09/27 02:00:39;;;;;;;2.67;1.40;;;12.60;86.40;;;;;;4972728;28;20513;-88
2022/09/27 02:03:15;;;;;;;4.40;1.20;;;12.50;86.50;;;;;;4958175;28;20532;-88
2022/09/27 02:05:47;;;;;;;2.40;1.60;;;12.50;86.60;;;;;;4958330;28;20874;-88
2022/09/27 02:08:40;;;;;;;1.83;1.57;;;12.50;86.80;;;;;;4968162;28;21279;-90
2022/09/27 02:11:12;;;;;;;2.67;1.47;;;12.50;86.90;;;;;;4958693;28;20518;-90
2022/09/27 02:14:01;;;;;;;3.70;1.53;;;12.50;86.80;;;;;;4950909;28;20523;-90
2022/09/27 02:16:39;;;;;;;5.10;1.60;;;12.50;87.00;;;;;;4951351;28;20524;-90
2022/09/27 02:19:33;;;;;;;2.17;1.60;;;12.40;87.10;;;;;;4961184;28;20520;-90
2022/09/27 02:22:39;;;;;;;3.83;1.50;;;12.50;86.80;;;;;;4971368;28;21029;-90
2022/09/27 02:25:21;;;;;;;1.63;1.53;;;12.50;86.90;;;;;;4914817;28;20531;-90
2022/09/27 02:28:05;;;;;;;1.80;1.70;;;12.40;87.00;;;;;;4960241;28;20465;-90
2022/09/27 02:30:32;;;;;;;6.63;2.20;;;12.40;87.20;;;;;;4957139;28;20537;-90
2022/09/27 02:32:59;;;;;;;2.80;2.00;;;12.30;87.50;;;;;;4957442;28;20548;-90
2022/09/27 02:35:32;;;;;;;4.53;1.93;;;12.30;87.50;;;;;;4957350;28;20466;-90
2022/09/27 02:37:59;;;;;;;3.23;1.60;;;12.30;87.60;;;;;;4956390;28;20521;-90
2022/09/27 02:40:31;;;;;;;4.17;1.50;;;12.30;87.40;;;;;;4957656;28;20446;-90
2022/09/27 02:43:00;;;;;;;3.67;1.30;;;12.30;87.20;;;;;;4973214;28;20477;-90
2022/09/27 02:45:54;;;;;;;5.10;1.00;;;12.30;87.20;;;;;;4957425;28;20541;-90
2022/09/27 02:48:30;;;;;;;2.00;1.00;;;12.30;86.50;;;;;;4973037;28;20512;-90
2022/09/27 02:51:21;;;;;;;1.73;1.20;;;12.30;86.30;;;;;;4974126;28;21312;-90
2022/09/27 02:54:13;;;;;;;1.63;0.93;;;12.30;85.90;;;;;;4966986;28;20948;-90
2022/09/27 02:56:56;;;;;;;2.30;0.90;;;12.30;85.90;;;;;;4957583;28;20458;-90
2022/09/27 02:59:42;;;;;;;0.70;0.70;;;12.20;85.90;;;;;;4956845;28;20500;-90
2022/09/27 03:02:11;;;;;;;1.73;0.50;;;12.20;86.10;;;;;;4956180;28;20470;-90
2022/09/27 03:04:42;;;;;;;1.43;0.80;;;12.20;85.70;;;;;;4972594;28;20477;-90
2022/09/27 03:07:11;;;;;;;2.80;0.70;;;12.20;85.90;;;;;;4970954;28;20741;-90
2022/09/27 03:09:47;;;;;;;2.50;0.80;;;12.20;86.10;;;;;;4956380;28;20494;-90
2022/09/27 03:12:24;;;;;;;1.00;0.90;;;12.10;86.20;;;;;;4951033;28;20473;-90
2022/09/27 03:15:00;;;;;;;0.67;0.60;;;12.20;86.00;;;;;;4972220;28;20525;-90
2022/09/27 03:17:27;;;;;;;0.97;0.70;;;12.10;85.90;;;;;;4972524;28;20509;-90
2022/09/27 03:19:53;;;;;;;0.60;0.60;;;12.10;86.00;;;;;;4957153;28;20880;-90
2022/09/27 03:22:20;;;;;;;1.37;1.27;;;12.20;85.20;;;;;;4970795;28;20889;-90
2022/09/27 03:24:48;;;;;;;0.63;0.63;;;12.20;85.20;;;;;;4957062;28;20469;-90
2022/09/27 03:27:14;;;;;;;2.00;0.70;;;12.20;84.90;;;;;;4954193;28;20959;-90
2022/09/27 03:29:41;;;;;;;1.53;0.70;;;12.20;85.10;;;;;;4956642;28;20521;-90
2022/09/27 03:32:08;;;;;;;0.43;0.43;;;12.10;84.80;;;;;;4956791;28;20466;-90
2022/09/27 03:34:35;;;;;;;0.87;0.53;;;12.10;84.70;;;;;;4956762;28;20447;-90
2022/09/27 03:37:01;;;;;;;0.50;0.50;;;12.00;84.80;;;;;;4954108;28;20521;-90
2022/09/27 03:39:28;;;;;;;1.23;1.00;;;12.00;84.90;;;;;;4973816;28;20462;-90
2022/09/27 03:41:56;;;;;;;1.70;0.60;;;12.00;84.70;;;;;;4957674;28;20533;-90
2022/09/27 03:44:22;;;;;;;2.30;0.50;;;12.00;84.20;;;;;;4953943;28;20909;-90
2022/09/27 03:46:49;;;;;;;0.50;0.40;;;12.00;84.00;;;;;;4954876;28;20505;-90
2022/09/27 03:49:16;;;;;;;0.40;0.40;;;12.00;84.40;;;;;;4951417;28;20486;-90
2022/09/27 03:51:43;;;;;;;0.60;0.53;;;12.00;84.10;;;;;;4956630;28;20469;-90
2022/09/27 03:54:10;;;;;;;0.70;0.30;;;12.00;83.90;;;;;;4972445;28;20474;-90
2022/09/27 03:56:36;;;;;;;0.93;0.60;;;12.00;83.70;;;;;;4955823;28;20833;-90
2022/09/27 03:59:03;;;;;;;0.80;0.40;;;12.00;83.90;;;;;;4956422;28;20497;-90
2022/09/27 04:01:30;;;;;;;2.83;0.57;;;11.90;84.40;;;;;;4954698;28;21008;-90
2022/09/27 04:03:56;;;;;;;0.70;0.60;;;11.90;84.20;;;;;;4955363;28;20462;-90
2022/09/27 04:06:25;;;;;;;0.97;0.40;;;12.00;83.30;;;;;;4958275;28;20469;-90
2022/09/27 04:08:53;;;;;;;0.80;0.60;;;12.00;83.30;;;;;;4950303;28;20454;-90
2022/09/27 04:11:20;;;;;;;0.97;0.40;;;11.90;83.40;;;;;;4970120;28;20885;-90
2022/09/27 04:13:48;;;;;;;0.60;0.40;;;11.90;83.50;;;;;;4972803;28;20497;-90
2022/09/27 04:16:15;;;;;;;0.40;0.40;;;11.90;83.50;;;;;;4955806;28;20443;-89
2022/09/27 04:18:42;;;;;;;0.53;0.40;;;11.90;83.60;;;;;;4954399;28;20925;-90
2022/09/27 04:21:09;;;;;;;2.33;1.03;;;11.90;83.50;;;;;;4949591;28;20466;-90
2022/09/27 04:23:36;;;;;;;0.60;0.50;;;11.80;83.70;;;;;;4954032;28;20493;-89
2022/09/27 04:26:03;;;;;;;0.80;0.40;;;11.80;83.80;;;;;;4949656;28;21066;-90
2022/09/27 04:28:30;;;;;;;0.90;0.40;;;11.80;84.00;;;;;;4952847;28;20458;-90
2022/09/27 04:30:57;;;;;;;1.63;0.30;;;11.70;84.00;;;;;;4952533;28;20627;-90
2022/09/27 04:33:24;;;;;;;0.40;0.30;;;11.70;84.20;;;;;;4956922;28;21466;-90
2022/09/27 04:38:36;;;;;;;1.93;0.70;;;11.70;84.20;;;;;;4971019;28;20461;-90
2022/09/27 04:41:03;;;;;;;4.30;1.00;;;11.70;83.70;;;;;;4971495;28;21000;-90
2022/09/27 04:43:29;;;;;;;1.03;0.50;;;11.70;83.80;;;;;;4954232;28;20874;-90
2022/09/27 04:45:56;;;;;;;1.33;0.50;;;11.70;83.80;;;;;;4954482;28;20477;-90
2022/09/27 04:48:23;;;;;;;0.50;0.40;;;11.70;83.70;;;;;;4954213;28;20995;-90
2022/09/27 04:51:03;;;;;;;0.70;0.63;;;11.70;83.80;;;;;;4954030;28;20588;-90
2022/09/27 04:53:30;;;;;;;3.03;0.70;;;11.70;83.80;;;;;;4953968;28;20493;-90
2022/09/27 04:55:57;;;;;;;0.70;0.70;;;11.70;83.90;;;;;;4950755;28;20462;-90
2022/09/27 04:58:24;;;;;;;0.50;0.50;;;11.70;83.80;;;;;;4969463;28;20494;-90
2022/09/27 05:00:51;;;;;;;2.83;0.70;;;11.70;84.20;;;;;;4970028;28;21027;-90
2022/09/27 05:03:18;;;;;;;3.60;0.70;;;11.70;84.00;;;;;;4945756;28;20470;-90
2022/09/27 05:05:45;;;;;;;0.87;0.60;;;11.70;83.90;;;;;;4967867;28;20510;-90
2022/09/27 05:08:12;;;;;;;1.10;0.70;;;11.70;83.70;;;;;;4955483;28;20618;-90
2022/09/27 05:10:39;;;;;;;1.43;0.50;;;11.70;83.70;;;;;;4952460;28;20554;-90
2022/09/27 05:13:05;;;;;;;0.60;0.47;;;11.70;83.60;;;;;;4952883;28;20465;-90
2022/09/27 05:15:33;;;;;;;0.77;0.63;;;11.70;83.50;;;;;;4956449;28;20490;-90
2022/09/27 05:17:59;;;;;;;0.43;0.43;;;11.70;83.40;;;;;;4971450;28;20478;-90
2022/09/27 05:20:26;;;;;;;1.90;0.70;;;11.70;83.30;;;;;;4955223;28;20467;-90
2022/09/27 05:22:53;;;;;;;1.43;0.70;;;11.70;83.50;;;;;;4951363;28;20474;-90
2022/09/27 05:25:20;;;;;;;1.23;0.60;;;11.70;83.60;;;;;;4952769;28;20467;-90
2022/09/27 05:27:48;;;;;;;1.03;0.70;;;11.70;83.50;;;;;;4943946;28;20459;-90
2022/09/27 05:30:15;;;;;;;0.70;0.47;;;11.60;83.50;;;;;;4955684;28;20906;-90
2022/09/27 05:32:48;;;;;;;0.70;0.50;;;11.60;83.90;;;;;;4958667;28;20890;-90
2022/09/27 05:35:19;;;;;;;0.50;0.40;;;11.60;83.90;;;;;;4956322;28;20466;-90
2022/09/27 05:37:59;;;;;;;0.90;0.73;;;11.60;83.90;;;;;;4976099;28;20426;-90
2022/09/27 05:40:28;;;;;;;1.20;0.50;;;11.60;83.80;;;;;;4967908;28;20505;-90
2022/09/27 05:43:07;;;;;;;0.60;0.50;;;11.60;83.60;;;;;;4972058;28;20446;-90
2022/09/27 05:45:34;;;;;;;0.50;0.40;;;11.60;83.50;;;;;;4975853;28;20469;-90
2022/09/27 05:48:02;;;;;;;0.50;0.50;;;11.60;83.70;;;;;;4971542;28;20521;-90
2022/09/27 05:50:28;;;;;;;0.90;0.60;;;11.60;83.90;;;;;;4970410;28;20558;-90
2022/09/27 05:52:56;;;;;;;0.73;0.67;;;11.60;83.50;;;;;;4954704;28;20481;-90
2022/09/27 05:55:23;;;;;;;0.70;0.60;;;11.50;84.20;;;;;;4956328;28;20497;-90
2022/09/27 05:58:02;;;;;;;1.57;0.50;;;11.60;84.10;;;;;;4959253;28;20541;-90
2022/09/27 06:00:30;;;;;;;1.13;0.60;;;11.60;83.20;;;;;;4952781;28;20524;-90
2022/09/27 06:02:59;;;;;;;2.67;0.60;;;11.60;83.10;;;;;;4955084;28;20458;-90
2022/09/27 06:05:28;;;;;;;1.33;0.37;;;11.60;82.90;;;;;;4955912;28;20462;-90
2022/09/27 06:08:00;;;;;;;2.17;0.53;;;11.70;82.40;;;;;;4951390;28;20463;-90
2022/09/27 06:10:27;;;;;;;0.70;0.53;;;11.70;82.00;;;;;;4954193;28;20486;-90
2022/09/27 06:13:01;;;;;;;1.43;0.70;;;11.70;81.90;;;;;;4949950;28;20454;-90
2022/09/27 06:15:30;;;;;;;0.60;0.60;;;11.70;81.90;;;;;;4955880;28;20512;-90
2022/09/27 06:18:01;;;;;;;1.07;0.50;;;11.70;82.10;;;;;;4972578;28;20485;-90
2022/09/27 06:20:28;;;;;;;0.93;0.53;;;11.70;82.00;;;;;;4975712;28;20477;-90
2022/09/27 06:23:01;;;;;;;2.40;1.80;;;11.70;82.30;;;;;;4954207;28;20521;-90
2022/09/27 06:25:28;;;;;;;0.70;0.70;;;11.70;82.50;;;;;;4967770;28;20474;-90
2022/09/27 06:27:55;;;;;;;0.90;0.90;;;11.70;82.20;;;;;;4951855;28;20474;-90
2022/09/27 06:30:21;;;;;;;1.17;0.50;;;11.80;81.90;;;;;;4953773;28;20498;-90
2022/09/27 06:32:58;;;;;;;2.90;0.80;;;11.80;81.60;;;;;;4955350;28;20462;-90
2022/09/27 06:35:25;;;;;;;0.70;0.50;;;11.80;81.30;;;;;;4968536;28;20450;-90
2022/09/27 06:37:52;;;;;;;1.07;0.60;;;11.80;81.40;;;;;;4954626;28;20476;-90
2022/09/27 06:40:19;;;;;;;2.10;0.50;;;11.80;81.00;;;;;;4949054;28;20498;-90
2022/09/27 06:42:46;;;;;;;0.90;0.50;;;11.80;81.20;;;;;;4955514;28;20458;-90
2022/09/27 06:45:13;;;;;;;0.50;0.50;;;11.90;81.20;;;;;;4950531;28;20474;-90
2022/09/27 06:47:39;;;;;;;0.70;0.70;;;11.90;81.30;;;;;;4956354;28;20498;-90
2022/09/27 06:50:07;;;;;;;1.33;0.90;;;11.80;81.30;;;;;;4956267;28;20589;-90
2022/09/27 06:52:34;;;;;;;1.17;0.50;;;11.80;81.40;;;;;;4960129;28;20529;-89
2022/09/27 06:55:02;;;;;;;0.57;0.40;;;11.90;81.50;;;;;;4957345;28;20509;-90
2022/09/27 07:00:25;;;;;;;0.70;0.53;;;11.90;81.10;;;;;;4971424;28;20947;-90
2022/09/27 07:02:59;;;;;;;0.50;0.50;;;11.90;80.80;;;;;;4957295;28;20500;-90
2022/09/27 07:05:30;;;;;;;2.37;0.70;;;12.00;80.30;;;;;;4956962;28;20481;-90
2022/09/27 07:07:57;;;;;;;2.80;0.60;;;12.00;80.50;;;;;;4958115;28;20945;-90
2022/09/27 07:10:27;;;;;;;1.37;1.27;;;12.00;80.70;;;;;;4957661;28;20545;-90
2022/09/27 07:12:54;;;;;;;2.00;0.77;;;12.00;80.40;;;;;;4955446;29;20447;-90
2022/09/27 07:15:22;;;;;;;1.17;0.50;;;11.90;80.40;;;;;;4973721;28;20509;-90
2022/09/27 07:17:59;;;;;;;2.00;0.90;;;12.00;80.40;;;;;;4974453;28;20548;-90
2022/09/27 07:20:26;;;;;;;0.70;0.53;;;12.00;80.40;;;;;;4973010;28;20457;-89
2022/09/27 07:22:52;;;;;;;0.67;0.43;;;12.00;80.10;;;;;;4962908;28;20482;-90
2022/09/27 07:25:19;;;;;;;0.50;0.40;;;12.00;80.20;;;;;;4970542;28;20537;-90
2022/09/27 07:27:46;;;;;;;1.90;0.50;;;12.10;79.80;;;;;;4957129;28;20521;-90
2022/09/27 07:30:13;;;;;;;2.10;0.77;;;12.10;79.60;;;;;;4957788;28;20561;-90
2022/09/27 07:32:41;;;;;;;0.57;0.53;;;12.10;78.30;;;;;;4974363;28;20521;-89
2022/09/27 07:35:08;;;;;;;0.80;0.80;;;12.10;78.90;;;;;;4958806;28;20450;-90
2022/09/27 07:37:36;;;;;;;0.70;0.67;;;12.10;78.80;;;;;;4971845;28;20457;-90
2022/09/27 07:40:07;;;;;;;0.60;0.60;;;12.10;79.30;;;;;;4956304;28;20550;-90
2022/09/27 07:42:38;;;;;;;0.90;0.80;;;12.00;80.00;;;;;;4958720;28;20445;-90
2022/09/27 07:45:05;;;;;;;0.80;0.80;;;12.00;80.40;;;;;;4969316;28;20478;-90
2022/09/27 07:47:36;;;;;;;0.60;0.60;;;12.10;80.40;;;;;;4970959;28;20509;-90
2022/09/27 07:50:09;;;;;;;4.87;0.87;;;12.10;80.40;;;;;;4974359;28;20469;-90
2022/09/27 07:52:40;;;;;;;0.50;0.50;;;12.10;80.40;;;;;;4956388;28;20495;-90
2022/09/27 07:55:09;;;;;;;1.60;0.53;;;12.10;80.80;;;;;;4971109;28;20466;-90
2022/09/27 07:57:37;;;;;;;2.23;0.70;;;12.20;80.30;;;;;;4970585;28;20450;-90
2022/09/27 08:00:09;;;;;;;1.27;0.87;;;12.30;78.70;;;;;;4957607;28;20462;-90
2022/09/27 08:02:36;;;;;;;0.63;0.50;;;12.20;79.10;;;;;;4973171;28;20502;-90
2022/09/27 08:05:03;;;;;;;0.73;0.73;;;12.20;79.40;;;;;;4972736;28;20462;-90
2022/09/27 08:07:31;;;;;;;1.90;0.70;;;12.30;79.50;;;;;;4955320;28;21187;-89
2022/09/27 08:09:58;;;;;;;0.70;0.70;;;12.40;79.50;;;;;;4954905;28;20462;-90
2022/09/27 08:12:25;;;;;;;0.70;0.70;;;12.50;79.20;;;;;;4957810;28;20486;-90
2022/09/27 08:14:52;;;;;;;1.03;0.50;;;12.50;78.20;;;;;;4958181;28;20471;-90
2022/09/27 08:17:18;;;;;;;3.67;0.70;;;12.60;78.30;;;;;;4956926;28;20862;-90
2022/09/27 08:19:47;;;;;;;2.40;1.00;;;12.60;78.30;;;;;;4952740;28;20451;-90
2022/09/27 08:22:15;;;;;;;4.97;0.60;;;12.60;78.10;;;;;;4950501;28;20466;-90
2022/09/27 08:24:42;;;;;;;0.90;0.60;;;12.50;78.50;;;;;;4970425;28;20466;-89
2022/09/27 08:27:09;;;;;;;0.60;0.60;;;12.60;78.40;;;;;;4969928;28;20515;-90
2022/09/27 08:29:40;;;;;;;1.47;0.70;;;12.70;77.70;;;;;;4958408;28;20446;-89
2022/09/27 08:32:08;;;;;;;0.60;0.50;;;12.80;76.90;;;;;;4958240;28;20490;-90
2022/09/27 08:34:35;;;;;;;7.10;3.90;;;12.90;75.70;;;;;;4957157;28;20466;-90
2022/09/27 08:37:03;;;;;;;3.20;1.23;;;12.90;75.70;;;;;;4957234;28;20466;-90
2022/09/27 08:39:31;;;;;;;1.87;0.90;;;12.90;75.30;;;;;;4955507;28;20525;-90
2022/09/27 08:42:05;;;;;;;2.10;0.50;;;12.90;75.70;;;;;;4955403;28;20463;-89
2022/09/27 08:44:43;;;;;;;1.50;1.00;;;12.90;75.50;;;;;;4956463;28;21006;-89
2022/09/27 08:47:14;;;;;;;1.30;0.63;;;12.90;75.40;;;;;;4956491;28;21007;-90
2022/09/27 08:50:03;;;;;;;1.27;0.80;;;12.90;75.00;;;;;;4954214;28;20482;-89
2022/09/27 08:52:34;;;;;;;3.00;0.80;;;12.90;75.00;;;;;;4954027;28;20533;-89
2022/09/27 08:55:09;;;;;;;0.70;0.70;;;12.90;74.70;;;;;;4979513;28;20449;-89
2022/09/27 08:57:36;;;;;;;1.30;0.67;;;12.90;75.40;;;;;;4956614;28;20446;-90
2022/09/27 09:00:07;;;;;;;2.10;0.50;;;13.00;75.00;;;;;;4972059;28;21553;-90
2022/09/27 09:02:36;;;;;;;1.33;0.60;;;13.00;74.60;;;;;;4955588;28;20458;-90
2022/09/27 09:05:10;;;;;;;0.70;0.50;;;13.10;73.90;;;;;;4967140;28;20537;-90
2022/09/27 09:08:07;;;;;;;4.57;0.67;;;13.10;74.30;;;;;;4951697;28;20493;-90
2022/09/27 09:14:28;;;;;;;0.93;0.40;;;13.20;74.70;;;;;;4973273;28;20459;-89
2022/09/27 09:17:12;;;;;;;2.30;0.70;;;13.40;74.10;;;;;;4966923;28;20494;-89
2022/09/27 09:19:54;;;;;;;2.20;0.50;;;13.40;74.20;;;;;;4960676;28;20458;-90
2022/09/27 09:22:51;;;;;;;0.53;0.33;;;13.50;73.20;;;;;;4953882;28;20549;-89
2022/09/27 09:25:35;;;;;;;0.50;0.40;;;13.50;73.10;;;;;;4948441;28;20478;-89
2022/09/27 09:28:42;;;;;;;0.50;0.43;;;13.50;73.00;;;;;;4953179;28;20466;-90
2022/09/27 09:31:28;;;;;;;2.00;0.50;;;13.50;73.10;;;;;;4969100;28;20568;-89
2022/09/27 09:34:00;;;;;;;2.77;0.60;;;13.40;72.70;;;;;;4969802;28;20521;-89
2022/09/27 09:36:32;;;;;;;0.90;0.60;;;13.50;72.50;;;;;;4969977;28;20528;-89
2022/09/27 09:39:10;;;;;;;0.87;0.60;;;13.40;72.90;;;;;;4954746;28;20521;-89
2022/09/27 09:41:44;;;;;;;0.40;0.40;;;13.50;72.90;;;;;;4953000;28;20466;-89
2022/09/27 09:44:20;;;;;;;2.50;0.77;;;13.60;71.30;;;;;;4954446;28;20461;-89
2022/09/27 09:46:52;;;;;;;3.60;0.50;;;13.70;70.70;;;;;;4968034;28;20516;-89
2022/09/27 09:49:34;;;;;;;0.60;0.60;;;13.70;71.00;;;;;;4963622;28;20479;-89
2022/09/27 09:52:17;;;;;;;0.70;0.53;;;13.70;71.30;;;;;;4968731;28;20540;-89
2022/09/27 09:54:49;;;;;;;1.00;0.50;;;13.70;71.20;;;;;;4971164;28;21524;-89
2022/09/27 09:57:24;;;;;;;0.63;0.40;;;13.70;71.70;;;;;;4952969;28;20570;-89
2022/09/27 10:00:00;;;;;;;1.77;0.40;;;13.70;71.30;;;;;;4952724;28;20453;-89
2022/09/27 10:02:42;;;;;;;1.57;0.57;;;13.80;70.70;;;;;;4953751;28;20515;-89
2022/09/27 10:05:13;;;;;;;1.97;0.50;;;13.70;71.10;;;;;;4967420;28;20521;-89
2022/09/27 10:07:40;;;;;;;0.57;0.40;;;13.70;70.90;;;;;;4966882;28;20467;-89
2022/09/27 10:10:13;;;;;;;1.47;0.50;;;13.70;71.10;;;;;;4951696;28;20506;-89
2022/09/27 10:12:40;;;;;;;1.40;0.47;;;13.70;71.40;;;;;;4957064;28;20477;-89
2022/09/27 10:15:12;;;;;;;1.80;0.67;;;13.70;71.00;;;;;;4974122;28;20894;-89
2022/09/27 10:17:43;;;;;;;0.53;0.50;;;13.60;71.10;;;;;;4955188;28;20515;-89
2022/09/27 10:20:18;;;;;;;0.70;0.50;;;13.70;70.70;;;;;;4953958;28;20450;-90
2022/09/27 10:22:49;;;;;;;1.70;1.10;;;13.60;71.20;;;;;;4973408;28;20453;-89
2022/09/27 10:25:16;;;;;;;3.60;0.77;;;13.60;71.40;;;;;;4956536;28;20469;-89
2022/09/27 10:27:46;;;;;;;4.83;1.03;;;13.60;71.60;;;;;;4953753;28;20470;-89
2022/09/27 10:30:31;;;;;;;0.80;0.63;;;13.50;72.10;;;;;;4974694;28;21385;-89
2022/09/27 10:33:17;;;;;;;0.97;0.83;;;13.60;71.80;;;;;;4958363;28;20984;-89
2022/09/27 10:35:48;;;;;;;0.80;0.73;;;13.60;71.20;;;;;;4970736;28;20545;-89
2022/09/27 10:38:15;;;;;;;1.63;0.90;;;13.60;70.10;;;;;;4975102;28;20465;-90
2022/09/27 10:40:42;;;;;;;3.37;1.90;;;13.70;70.10;;;;;;4955854;28;20454;-89
2022/09/27 10:43:30;;;;;;;1.10;1.00;;;13.80;69.80;;;;;;4957123;28;21247;-89
2022/09/27 10:46:05;;;;;;;2.87;0.90;;;13.90;68.70;;;;;;4972957;28;20525;-90
2022/09/27 10:48:33;;;;;;;1.47;1.20;;;13.90;69.20;;;;;;4972344;28;20857;-89
2022/09/27 10:51:03;;;;;;;0.80;0.77;;;13.90;68.60;;;;;;4957291;28;20497;-89
2022/09/27 10:53:32;;;;;;;2.13;1.13;;;13.90;68.90;;;;;;4955627;28;20465;-89
2022/09/27 10:56:00;;;;;;;2.23;0.90;;;13.90;68.30;;;;;;4954786;28;21035;-89
2022/09/27 10:58:30;;;;;;;1.33;0.83;;;13.90;68.30;;;;;;4937538;28;20470;-89
2022/09/27 11:01:04;;;;;;;2.47;0.90;;;13.90;68.80;;;;;;4969463;28;20826;-89
2022/09/27 11:03:36;;;;;;;1.60;1.30;;;13.80;69.30;;;;;;4954152;28;20461;-89
2022/09/27 11:06:23;;;;;;;1.17;1.00;;;13.80;69.30;;;;;;4959600;28;20591;-89
2022/09/27 11:08:52;;;;;;;1.83;1.00;;;13.80;69.40;;;;;;4944917;28;20462;-89
2022/09/27 11:11:27;;;;;;;1.50;1.20;;;13.80;69.20;;;;;;4955510;28;20493;-89
2022/09/27 11:14:06;;;;;;;1.20;0.80;;;13.90;69.00;;;;;;4956728;28;20861;-89
2022/09/27 11:16:39;;;;;;;0.93;0.80;;;13.90;69.20;;;;;;4970390;28;21170;-89
2022/09/27 11:19:32;;;;;;;1.30;0.70;;;13.90;69.00;;;;;;4973238;28;20497;-89
2022/09/27 11:22:34;;;;;;;1.30;0.90;;;13.90;69.70;;;;;;4969766;28;20494;-89
2022/09/27 11:25:29;;;;;;;1.10;1.00;;;13.90;69.20;;;;;;4950543;28;20466;-89
2022/09/27 11:28:08;;;;;;;2.67;2.00;;;13.90;69.60;;;;;;4951980;28;20461;-89
2022/09/27 11:30:56;;;;;;;2.87;2.47;;;13.90;69.60;;;;;;4953096;28;20469;-90
2022/09/27 11:33:41;;;;;;;1.57;1.30;;;13.90;70.00;;;;;;4972097;28;20553;-89
2022/09/27 11:36:09;;;;;;;2.20;1.77;;;13.90;69.40;;;;;;4961099;28;20472;-89
2022/09/27 11:38:55;;;;;;;2.00;1.73;;;14.00;68.80;;;;;;4975243;28;20466;-89
2022/09/27 11:41:49;;;;;;;1.30;1.20;;;13.90;69.20;;;;;;4971167;28;20563;-89
2022/09/27 11:44:51;;;;;;;1.17;0.83;;;13.90;69.50;;;;;;4956069;28;20462;-90
2022/09/27 11:47:56;;;;;;;1.23;1.13;;;14.00;69.00;;;;;;4963322;28;20549;-89
2022/09/27 11:51:01;;;;;;;2.20;1.17;;;13.90;69.60;;;;;;4955925;28;21312;-89
2022/09/27 11:53:46;;;;;;;0.90;0.90;;;13.90;69.90;;;;;;4954905;28;20466;-89
2022/09/27 11:56:54;;;;;;;1.33;1.30;;;13.90;69.30;;;;;;4956168;28;20454;-89
2022/09/27 11:59:36;;;;;;;2.13;1.87;;;13.90;69.50;;;;;;4954019;28;20502;-89
2022/09/27 12:02:24;;;;;;;1.33;1.23;;;13.90;69.80;;;;;;4956243;28;20462;-89
2022/09/27 12:04:57;;;;;;;2.50;1.53;;;13.90;70.00;;;;;;4956909;28;20462;-89
2022/09/27 12:07:32;;;;;;;3.07;1.30;;;14.00;69.40;;;;;;4957037;28;20513;-89
2022/09/27 12:10:09;;;;;;;1.97;1.50;;;14.00;69.80;;;;;;4972571;28;20517;-89
2022/09/27 12:12:42;;;;;;;1.23;1.10;;;14.10;68.30;;;;;;4976845;28;20905;-89
2022/09/27 12:15:23;;;;;;;1.20;1.10;;;14.10;66.90;;;;;;4957069;28;20466;-89
2022/09/27 12:17:55;;;;;;;2.50;1.53;;;14.20;66.70;;;;;;4954874;28;20474;-89
2022/09/27 12:20:26;;;;;;;2.40;0.90;;;14.30;66.30;;;;;;4955783;28;20478;-89
2022/09/27 12:23:10;;;;;;;2.50;1.50;;;14.20;67.20;;;;;;4956710;28;20521;-89
2022/09/27 12:25:40;;;;;;;2.33;1.07;;;14.20;67.30;;;;;;4956081;28;20521;-89
2022/09/27 12:28:43;;;;;;;1.60;1.23;;;14.30;67.00;;;;;;4962154;28;20493;-89
2022/09/27 12:31:22;;;;;;;4.77;1.40;;;14.30;66.80;;;;;;4969863;28;20469;-89
2022/09/27 12:34:02;;;;;;;1.23;1.00;;;14.20;67.20;;;;;;4974688;28;20545;-89
2022/09/27 12:36:36;;;;;;;3.90;1.10;;;14.30;67.50;;;;;;4958012;28;20885;-89
2022/09/27 12:39:25;;;;;;;3.10;1.30;;;14.30;67.40;;;;;;4959840;28;20454;-89
2022/09/27 12:42:01;;;;;;;4.80;2.70;;;14.20;68.10;;;;;;4958083;28;20482;-89
2022/09/27 12:44:36;;;;;;;2.10;1.90;;;14.20;68.10;;;;;;4960139;28;20496;-89
2022/09/27 12:47:31;;;;;;;1.10;1.00;;;14.10;68.50;;;;;;4973204;28;21002;-89
2022/09/27 12:50:08;;;;;;;3.87;0.90;;;14.20;67.10;;;;;;4968731;28;20481;-89
2022/09/27 12:52:41;;;;;;;1.20;1.10;;;14.10;67.20;;;;;;4974506;28;21018;-89
2022/09/27 12:55:29;;;;;;;0.93;0.90;;;14.10;67.60;;;;;;4973102;28;20469;-89
2022/09/27 12:58:21;;;;;;;5.40;1.10;;;14.10;68.90;;;;;;4988250;28;20446;-89
2022/09/27 13:00:51;;;;;;;0.80;0.70;;;14.10;69.30;;;;;;4993906;28;20462;-89
2022/09/27 13:03:49;;;;;;;2.27;0.90;;;14.10;69.40;;;;;;4997944;28;20462;-89
2022/09/27 13:06:22;;;;;;;1.33;0.50;;;14.00;69.90;;;;;;4988762;28;20481;-90
2022/09/27 13:09:03;;;;;;;3.43;1.23;;;14.00;68.60;;;;;;4996822;28;20465;-89
2022/09/27 13:11:59;;;;;;;0.40;0.40;;;13.90;67.90;;;;;;4996296;28;20426;-89
2022/09/27 13:14:33;;;;;;;2.40;0.60;;;13.90;68.10;;;;;;4988312;28;20450;-89
2022/09/27 13:16:59;;;;;;;1.40;1.30;;;13.80;68.90;;;;;;4968365;28;20470;-90
2022/09/27 13:19:41;;;;;;;1.97;1.87;;;13.80;69.50;;;;;;4955677;28;20525;-90
2022/09/27 13:22:29;;;;;;;1.73;1.63;;;13.80;70.30;;;;;;4957635;28;21327;-89
2022/09/27 13:24:56;;;;;;;3.03;1.53;;;13.70;71.40;;;;;;4954876;28;20462;-89
2022/09/27 13:27:25;;;;;;;1.40;1.30;;;13.70;72.20;;;;;;4968777;28;20514;-89
2022/09/27 13:30:10;;;;;;;2.97;2.63;;;13.70;72.80;;;;;;4955274;28;20844;-89
2022/09/27 13:32:39;;;;;;;3.27;2.40;;;13.80;72.50;;;;;;4971806;28;20490;-90